createdAt,value
2023-04-02T00:01:19.436Z,6.82
2023-04-02T00:04:24.170Z,7.57
2023-04-02T00:07:33.429Z,6.70
2023-04-02T00:11:09.258Z,7.13
2023-04-02T00:14:33.677Z,8.80
2023-04-02T00:17:36.533Z,7.32
2023-04-02T00:20:43.153Z,6.73
2023-04-02T00:23:46.542Z,8.38
2023-04-02T00:26:51.890Z,9.63
2023-04-02T00:29:56.877Z,9.32
2023-04-02T00:32:59.717Z,7.82
2023-04-02T00:36:08.109Z,7.80
2023-04-02T00:39:21.262Z,6.40
2023-04-02T00:42:25.504Z,4.07
2023-04-02T00:45:32.350Z,4.05
2023-04-02T00:48:46.062Z,3.28
2023-04-02T00:51:55.261Z,2.97
2023-04-02T00:55:07.531Z,2.20
2023-04-02T00:58:27.897Z,3.45
2023-04-02T01:01:37.674Z,2.53
2023-04-02T01:04:41.812Z,3.30
2023-04-02T01:07:51.575Z,2.93
2023-04-02T01:11:04.789Z,2.08
2023-04-02T01:14:19.980Z,2.63
2023-04-02T01:17:43.876Z,2.42
2023-04-02T01:21:03.539Z,2.17
2023-04-02T01:24:09.571Z,2.97
2023-04-02T01:27:28.859Z,2.15
2023-04-02T01:30:35.015Z,2.30
2023-04-02T01:33:41.525Z,2.38
2023-04-02T01:37:06.005Z,1.90
2023-04-02T01:40:33.666Z,2.50
2023-04-02T01:44:08.314Z,2.20
2023-04-02T01:47:15.002Z,3.53
2023-04-02T01:50:21.086Z,2.90
2023-04-02T01:53:27.864Z,1.50
2023-04-02T01:56:30.825Z,1.33
2023-04-02T01:59:33.780Z,2.10
2023-04-02T02:02:40.987Z,3.00
2023-04-02T02:05:44.566Z,3.60
2023-04-02T02:08:56.611Z,2.90
2023-04-02T02:12:02.836Z,2.37
2023-04-02T02:15:16.172Z,2.65
2023-04-02T02:18:27.781Z,3.63
2023-04-02T02:21:36.696Z,4.75
2023-04-02T02:24:41.255Z,3.88
2023-04-02T02:28:10.485Z,5.27
2023-04-02T02:31:20.228Z,7.05
2023-04-02T02:34:37.267Z,5.75
2023-04-02T02:37:45.228Z,5.00
2023-04-02T02:40:54.896Z,6.53
2023-04-02T02:44:11.703Z,6.33
2023-04-02T02:47:32.780Z,5.43
2023-04-02T02:50:39.049Z,6.15
2023-04-02T02:53:53.028Z,5.13
2023-04-02T02:57:01.479Z,4.60
2023-04-02T03:00:09.993Z,3.47
2023-04-02T03:03:19.247Z,3.28
2023-04-02T03:06:25.966Z,2.72
2023-04-02T03:09:49.101Z,4.45
2023-04-02T03:13:00.159Z,4.55
2023-04-02T03:16:11.526Z,6.47
2023-04-02T03:19:49.964Z,5.07
2023-04-02T03:23:22.344Z,5.75
2023-04-02T03:26:58.131Z,6.18
2023-04-02T03:30:23.665Z,9.00
2023-04-02T03:33:41.012Z,5.43
2023-04-02T03:37:08.526Z,7.90
2023-04-02T03:40:21.005Z,5.47
2023-04-02T03:43:46.388Z,12.90
2023-04-02T03:46:58.415Z,7.03
2023-04-02T03:50:44.408Z,5.93
2023-04-02T03:53:48.664Z,6.53
2023-04-02T03:56:53.450Z,5.10
2023-04-02T04:00:14.520Z,5.80
2023-04-02T04:03:42.148Z,6.68
2023-04-02T04:06:49.941Z,5.30
2023-04-02T04:09:54.599Z,6.22
2023-04-02T04:13:05.534Z,5.07
2023-04-02T04:16:14.761Z,6.32
2023-04-02T04:19:23.026Z,12.07
2023-04-02T04:22:32.868Z,14.67
2023-04-02T04:25:49.584Z,8.70
2023-04-02T04:29:09.807Z,8.30
2023-04-02T04:32:35.055Z,7.15
2023-04-02T04:35:54.387Z,7.40
2023-04-02T04:39:06.093Z,6.10
2023-04-02T04:42:18.304Z,7.47
2023-04-02T04:45:47.950Z,7.45
2023-04-02T04:49:11.434Z,9.43
2023-04-02T04:52:23.884Z,6.97
2023-04-02T04:55:31.210Z,12.10
2023-04-02T04:59:02.444Z,14.02
2023-04-02T05:02:09.278Z,10.60
2023-04-02T05:05:20.224Z,13.48
2023-04-02T05:08:32.737Z,10.27
2023-04-02T05:11:46.116Z,9.43
2023-04-02T05:15:11.643Z,9.43
2023-04-02T05:18:31.147Z,8.95
2023-04-02T05:21:58.427Z,7.03
2023-04-02T05:25:11.334Z,7.55
2023-04-02T05:28:18.499Z,7.83
2023-04-02T05:31:33.005Z,6.95
2023-04-02T05:34:39.569Z,7.80
2023-04-02T05:37:43.577Z,10.40
2023-04-02T05:40:51.171Z,10.68
2023-04-02T05:44:35.053Z,16.33
2023-04-02T05:47:43.500Z,20.50
2023-04-02T05:50:54.590Z,22.42
2023-04-02T05:54:06.767Z,59.55
2023-04-02T05:57:16.312Z,35.38
2023-04-02T06:00:47.775Z,12.40
2023-04-02T06:04:03.030Z,5.65
2023-04-02T06:07:09.226Z,8.15
2023-04-02T06:10:24.758Z,6.10
2023-04-02T06:13:28.892Z,8.90
2023-04-02T06:16:34.629Z,5.17
2023-04-02T06:19:39.683Z,10.43
2023-04-02T06:23:52.751Z,20.55
2023-04-02T06:27:02.526Z,22.63
2023-04-02T06:30:10.230Z,23.15
2023-04-02T06:33:13.607Z,23.60
2023-04-02T06:36:21.407Z,21.27
2023-04-02T06:39:27.259Z,11.15
2023-04-02T06:42:36.176Z,12.20
2023-04-02T06:45:49.998Z,6.03
2023-04-02T06:49:40.517Z,4.53
2023-04-02T06:52:59.245Z,6.68
2023-04-02T06:56:33.133Z,4.75
2023-04-02T06:59:36.931Z,6.60
2023-04-02T07:02:43.464Z,8.98
2023-04-02T07:05:47.974Z,2.93
2023-04-02T07:08:51.483Z,2.97
2023-04-02T07:11:55.469Z,4.43
2023-04-02T07:14:58.408Z,6.93
2023-04-02T07:18:01.536Z,5.00
2023-04-02T07:21:04.886Z,2.77
2023-04-02T07:24:08.203Z,1.65
2023-04-02T07:27:12.573Z,2.78
2023-04-02T07:30:15.692Z,1.83
2023-04-02T07:33:21.855Z,0.40
2023-04-02T07:36:25.065Z,1.23
2023-04-02T07:39:27.858Z,0.50
2023-04-02T07:42:31.065Z,1.65
2023-04-02T07:45:34.133Z,0.32
2023-04-02T07:48:37.739Z,1.83
2023-04-02T07:51:40.875Z,3.97
2023-04-02T07:54:44.148Z,1.38
2023-04-02T07:57:52.381Z,0.40
2023-04-02T08:00:55.233Z,0.80
2023-04-02T08:03:58.373Z,1.45
2023-04-02T08:07:01.751Z,1.50
2023-04-02T08:10:05.293Z,0.95
2023-04-02T08:13:08.263Z,0.38
2023-04-02T08:16:11.284Z,0.30
2023-04-02T08:19:14.197Z,0.22
2023-04-02T08:22:17.019Z,0.17
2023-04-02T08:25:19.948Z,1.38
2023-04-02T08:28:23.094Z,0.73
2023-04-02T08:31:26.098Z,0.50
2023-04-02T08:34:29.000Z,0.73
2023-04-02T08:37:31.818Z,0.10
2023-04-02T08:40:39.190Z,0.60
2023-04-02T08:44:05.412Z,0.30
2023-04-02T08:47:10.962Z,0.95
2023-04-02T08:50:30.779Z,0.40
2023-04-02T08:53:40.521Z,0.67
2023-04-02T08:56:57.502Z,0.20
2023-04-02T09:00:10.745Z,0.88
2023-04-02T09:03:26.086Z,0.35
2023-04-02T09:06:29.909Z,0.90
2023-04-02T09:09:37.964Z,1.07
2023-04-02T09:12:42.409Z,0.93
2023-04-02T09:15:45.504Z,4.13
2023-04-02T09:18:50.753Z,1.63
2023-04-02T09:22:02.067Z,1.80
2023-04-02T09:25:12.605Z,1.07
2023-04-02T09:28:16.117Z,1.75
2023-04-02T09:31:34.597Z,1.05
2023-04-02T09:34:37.418Z,0.75
2023-04-02T09:37:41.019Z,0.50
2023-04-02T09:40:47.009Z,0.63
2023-04-02T09:43:49.941Z,0.52
2023-04-02T09:47:03.761Z,0.35
2023-04-02T09:50:22.051Z,1.83
2023-04-02T09:53:30.140Z,0.30
2023-04-02T09:56:37.856Z,0.50
2023-04-02T09:59:41.058Z,0.55
2023-04-02T10:02:46.790Z,0.30
2023-04-02T10:05:49.729Z,1.10
2023-04-02T10:08:52.597Z,0.43
2023-04-02T10:11:56.859Z,0.30
2023-04-02T10:15:01.525Z,0.30
2023-04-02T10:18:23.468Z,0.43
2023-04-02T10:21:37.868Z,0.20
2023-04-02T10:24:41.130Z,0.20
2023-04-02T10:27:59.040Z,0.60
2023-04-02T10:31:22.654Z,0.57
2023-04-02T10:34:31.227Z,0.30
2023-04-02T10:37:46.237Z,0.70
2023-04-02T10:40:55.866Z,0.30
2023-04-02T10:44:17.074Z,1.10
2023-04-02T10:47:38.309Z,0.73
2023-04-02T10:50:51.939Z,0.50
2023-04-02T10:54:13.930Z,0.38
2023-04-02T10:57:16.852Z,0.50
2023-04-02T11:00:28.030Z,0.50
2023-04-02T11:03:43.646Z,0.70
2023-04-02T11:06:58.058Z,0.60
2023-04-02T11:10:07.113Z,1.00
2023-04-02T11:13:20.795Z,0.90
2023-04-02T11:16:24.672Z,0.80
2023-04-02T11:19:36.094Z,2.13
2023-04-02T11:22:39.292Z,0.40
2023-04-02T11:25:43.356Z,0.80
2023-04-02T11:28:46.544Z,0.35
2023-04-02T11:31:52.593Z,0.40
2023-04-02T11:35:05.859Z,0.77
2023-04-02T11:38:10.041Z,0.63
2023-04-02T11:41:13.199Z,2.95
2023-04-02T11:44:24.341Z,0.30
2023-04-02T11:47:30.020Z,0.80
2023-04-02T11:50:44.673Z,0.75
2023-04-02T11:53:48.563Z,1.95
2023-04-02T11:57:16.012Z,0.28
2023-04-02T12:00:48.134Z,0.93
2023-04-02T12:03:57.150Z,0.50
2023-04-02T12:07:12.985Z,0.93
2023-04-02T12:10:17.652Z,1.17
2023-04-02T12:13:22.040Z,0.70
2023-04-02T12:16:31.570Z,1.38
2023-04-02T12:19:34.527Z,0.30
2023-04-02T12:22:47.809Z,0.65
2023-04-02T12:25:58.553Z,0.20
2023-04-02T12:29:16.704Z,0.20
2023-04-02T12:32:30.043Z,0.50
2023-04-02T12:35:36.754Z,0.90
2023-04-02T12:38:52.044Z,1.17
2023-04-02T12:41:55.238Z,1.10
2023-04-02T12:44:58.266Z,0.40
2023-04-02T12:48:05.682Z,0.52
2023-04-02T12:51:10.809Z,0.40
2023-04-02T12:54:17.784Z,0.20
2023-04-02T12:57:26.603Z,0.73
2023-04-02T13:00:31.716Z,0.82
2023-04-02T13:03:34.982Z,0.40
2023-04-02T13:06:39.312Z,0.40
2023-04-02T13:09:49.114Z,0.43
2023-04-02T13:12:58.005Z,0.90
2023-04-02T13:16:22.520Z,0.77
2023-04-02T13:19:29.912Z,0.70
2023-04-02T13:22:32.946Z,1.63
2023-04-02T13:25:37.085Z,1.77
2023-04-02T13:28:39.968Z,1.10
2023-04-02T13:31:43.361Z,0.55
2023-04-02T13:34:46.757Z,0.90
2023-04-02T13:37:49.744Z,0.50
2023-04-02T13:40:52.745Z,0.85
2023-04-02T13:43:59.893Z,1.25
2023-04-02T13:47:02.736Z,0.60
2023-04-02T13:50:05.898Z,0.40
2023-04-02T13:53:17.965Z,0.27
2023-04-02T13:56:23.072Z,2.83
2023-04-02T13:59:27.437Z,0.82
2023-04-02T14:02:30.894Z,0.80
2023-04-02T14:05:40.498Z,0.88
2023-04-02T14:09:11.317Z,0.30
2023-04-02T14:12:14.104Z,1.60
2023-04-02T14:15:47.690Z,0.75
2023-04-02T14:19:12.408Z,0.98
2023-04-02T14:22:43.499Z,0.50
2023-04-02T14:25:55.632Z,1.10
2023-04-02T14:29:29.205Z,0.40
2023-04-02T14:33:01.608Z,0.60
2023-04-02T14:36:24.307Z,0.80
2023-04-02T14:40:11.564Z,0.80
2023-04-02T14:43:41.004Z,0.80
2023-04-02T14:46:44.014Z,2.67
2023-04-02T14:49:50.803Z,3.67
2023-04-02T14:52:58.891Z,1.48
2023-04-02T14:56:06.357Z,0.90
2023-04-02T14:59:26.102Z,2.27
2023-04-02T15:02:58.149Z,1.67
2023-04-02T15:06:06.296Z,1.42
2023-04-02T15:09:30.899Z,1.45
2023-04-02T15:12:37.453Z,0.82
2023-04-02T15:15:49.181Z,1.43
2023-04-02T15:19:01.005Z,1.20
2023-04-02T15:22:29.709Z,2.28
2023-04-02T15:25:43.088Z,2.45
2023-04-02T15:28:58.484Z,2.42
2023-04-02T15:32:26.844Z,1.30
2023-04-02T15:35:39.723Z,1.33
2023-04-02T15:38:52.481Z,1.92
2023-04-02T15:42:10.765Z,4.18
2023-04-02T15:45:22.486Z,1.60
2023-04-02T15:48:39.628Z,5.03
2023-04-02T15:51:53.792Z,1.27
2023-04-02T15:55:10.709Z,1.38
2023-04-02T15:58:28.873Z,2.60
2023-04-02T16:01:42.988Z,2.97
2023-04-02T16:04:53.140Z,3.40
2023-04-02T16:08:43.986Z,4.38
2023-04-02T16:11:46.957Z,3.63
2023-04-02T16:14:50.096Z,2.30
2023-04-02T16:18:06.484Z,2.30
2023-04-02T16:21:14.709Z,4.20
2023-04-02T16:24:17.881Z,4.43
2023-04-02T16:27:38.770Z,3.75
2023-04-02T16:30:51.395Z,6.10
2023-04-02T16:34:18.523Z,2.88
2023-04-02T16:37:24.224Z,1.33
2023-04-02T16:40:33.285Z,0.93
2023-04-02T16:43:48.575Z,1.67
2023-04-02T16:47:04.366Z,1.08
2023-04-02T16:50:13.130Z,2.67
2023-04-02T16:54:01.669Z,2.40
2023-04-02T16:57:17.587Z,1.90
2023-04-02T17:00:38.891Z,3.13
2023-04-02T17:03:51.138Z,2.22
2023-04-02T17:07:23.596Z,2.25
2023-04-02T17:10:32.548Z,4.13
2023-04-02T17:14:12.542Z,1.40
2023-04-02T17:17:16.648Z,1.98
2023-04-02T17:20:23.721Z,2.70
2023-04-02T17:23:28.367Z,1.70
2023-04-02T17:26:35.110Z,1.50
2023-04-02T17:29:41.168Z,0.65
2023-04-02T17:32:44.536Z,0.95
2023-04-02T17:36:00.014Z,1.05
2023-04-02T17:39:49.584Z,2.67
2023-04-02T17:43:17.845Z,1.30
2023-04-02T17:46:53.978Z,2.08
2023-04-02T17:50:12.517Z,1.83
2023-04-02T17:53:15.583Z,7.70
2023-04-02T17:56:41.527Z,1.45
2023-04-02T17:59:54.168Z,1.30
2023-04-02T18:03:16.085Z,1.52
2023-04-02T18:06:27.322Z,2.35
2023-04-02T18:09:39.115Z,4.82
2023-04-02T18:12:57.163Z,4.55
2023-04-02T18:16:00.464Z,3.97
2023-04-02T18:19:25.007Z,6.47
2023-04-02T18:22:46.624Z,3.17
2023-04-02T18:25:49.719Z,2.42
2023-04-02T18:29:15.019Z,5.25
2023-04-02T18:32:27.556Z,2.90
2023-04-02T18:35:43.461Z,2.58
2023-04-02T18:39:02.132Z,4.35
2023-04-02T18:42:39.216Z,3.88
2023-04-02T18:45:48.331Z,3.10
2023-04-02T18:49:18.450Z,4.27
2023-04-02T18:52:25.054Z,3.28
2023-04-02T18:55:30.677Z,4.43
2023-04-02T18:58:43.084Z,3.25
2023-04-02T19:01:51.601Z,4.03
2023-04-02T19:05:36.204Z,2.63
2023-04-02T19:08:48.332Z,2.90
2023-04-02T19:11:53.171Z,3.72
2023-04-02T19:14:59.125Z,3.03
2023-04-02T19:18:10.829Z,4.97
2023-04-02T19:21:54.374Z,3.57
2023-04-02T19:25:18.340Z,2.88
2023-04-02T19:28:34.055Z,4.43
2023-04-02T19:31:47.596Z,4.40
2023-04-02T19:35:09.576Z,5.20
2023-04-02T19:38:34.221Z,4.83
2023-04-02T19:41:49.731Z,2.53
2023-04-02T19:44:54.275Z,5.43
2023-04-02T19:48:00.976Z,4.90
2023-04-02T19:51:04.158Z,4.55
2023-04-02T19:54:07.289Z,4.53
2023-04-02T19:57:15.818Z,4.63
2023-04-02T20:00:19.247Z,5.93
2023-04-02T20:03:22.978Z,5.15
2023-04-02T20:06:26.394Z,5.72
2023-04-02T20:09:30.009Z,4.53
2023-04-02T20:12:33.360Z,5.25
2023-04-02T20:15:36.792Z,6.30
2023-04-02T20:18:40.598Z,7.43
2023-04-02T20:21:44.047Z,6.18
2023-04-02T20:24:47.134Z,5.33
2023-04-02T20:27:50.157Z,5.63
2023-04-02T20:30:53.965Z,5.55
2023-04-02T20:33:58.277Z,7.22
2023-04-02T20:37:03.624Z,7.03
2023-04-02T20:40:07.377Z,7.23
2023-04-02T20:43:10.878Z,6.07
2023-04-02T20:46:14.467Z,7.28
2023-04-02T20:49:17.413Z,6.70
2023-04-02T20:52:22.165Z,10.20
2023-04-02T20:55:25.018Z,8.93
2023-04-02T20:58:37.761Z,6.32
2023-04-02T21:01:43.727Z,6.97
2023-04-02T21:04:46.654Z,7.18
2023-04-02T21:07:49.539Z,6.63
2023-04-02T21:10:52.433Z,6.33
2023-04-02T21:13:55.442Z,6.72
2023-04-02T21:16:58.293Z,7.80
2023-04-02T21:20:01.179Z,7.72
2023-04-02T21:23:04.039Z,9.38
2023-04-02T21:26:07.893Z,9.90
2023-04-02T21:29:12.506Z,9.35
2023-04-02T21:32:21.619Z,8.13
2023-04-02T21:35:25.098Z,8.23
2023-04-02T21:38:28.385Z,8.15
2023-04-02T21:41:32.950Z,8.10
2023-04-02T21:44:35.696Z,9.13
2023-04-02T21:47:38.611Z,8.70
2023-04-02T21:50:41.594Z,9.57
2023-04-02T21:53:45.450Z,7.97
2023-04-02T21:56:54.101Z,9.07
2023-04-02T21:59:59.941Z,10.13
2023-04-02T22:03:03.010Z,8.68
2023-04-02T22:06:10.641Z,9.45
2023-04-02T22:09:17.200Z,9.73
2023-04-02T22:12:20.091Z,7.93
2023-04-02T22:15:22.895Z,10.80
2023-04-02T22:18:26.031Z,8.88
2023-04-02T22:21:30.861Z,10.70
2023-04-02T22:24:33.678Z,8.70
2023-04-02T22:27:36.452Z,10.83
2023-04-02T22:30:39.482Z,11.23
2023-04-02T22:33:44.535Z,10.20
2023-04-02T22:36:47.523Z,8.75
2023-04-02T22:39:50.543Z,12.10
2023-04-02T22:42:53.609Z,9.60
2023-04-02T22:45:56.429Z,10.77
2023-04-02T22:48:59.397Z,8.05
2023-04-02T22:52:03.816Z,9.13
2023-04-02T22:55:08.082Z,10.13
2023-04-02T22:58:11.062Z,9.80
2023-04-02T23:01:21.757Z,11.07
2023-04-02T23:04:24.681Z,11.77
2023-04-02T23:07:27.494Z,11.80
2023-04-02T23:10:30.968Z,10.20
2023-04-02T23:13:34.830Z,12.60
2023-04-02T23:16:37.689Z,14.48
2023-04-02T23:19:40.517Z,12.43
2023-04-02T23:22:43.407Z,10.32
2023-04-02T23:25:46.279Z,11.32
2023-04-02T23:28:50.717Z,15.57
2023-04-02T23:31:53.576Z,13.43
2023-04-02T23:34:56.575Z,14.27
2023-04-02T23:37:59.505Z,11.80
2023-04-02T23:41:02.354Z,16.40
2023-04-02T23:44:06.047Z,13.17
2023-04-02T23:47:09.650Z,13.60
2023-04-02T23:50:12.623Z,13.05
2023-04-02T23:53:16.578Z,13.23
2023-04-02T23:56:20.128Z,11.90
2023-04-02T23:59:22.922Z,9.93
